CST,Max TemperatureF,Mean TemperatureF,Min TemperatureF,Max Dew PointF,MeanDew PointF,Min DewpointF,Max Humidity, Mean Humidity, Min Humidity, Max Sea Level PressureIn, Mean Sea Level PressureIn, Min Sea Level PressureIn, Max VisibilityMiles, Mean VisibilityMiles, Min VisibilityMiles, Max Wind SpeedMPH, Mean Wind SpeedMPH, Max Gust SpeedMPH,PrecipitationIn, CloudCover, Events, WindDirDegrees
2013-1-1,56,51,45,54,46,36,93,82,71,30.22,30.07,29.97,10,8,2,13,7,20,0.21,8,Rain,348
2013-1-2,45,41,37,36,32,30,82,72,62,30.33,30.27,30.22,10,10,8,12,5,15,0.00,5,,341
2013-1-3,55,43,30,32,30,27,85,62,38,30.43,30.38,30.32,10,9,5,12,4,16,0.00,0,,357
2013-1-4,51,47,42,40,36,31,76,64,52,30.53,30.44,30.38,10,10,4,10,2,14,0.10,8,Rain,35
2013-1-5,48,46,44,43,41,37,89,80,71,30.40,30.33,30.28,10,8,3,8,2,10,0.14,8,Rain,88
2013-1-6,61,48,35,41,37,32,93,65,36,30.37,30.32,30.27,10,7,0,12,4,16,0.00,4,Fog,357
2013-1-7,57,43,29,40,33,26,89,65,40,30.35,30.26,30.13,10,7,2,12,4,15,0.00,1,,57
2013-1-8,62,55,47,59,52,39,93,82,71,30.12,30.03,29.96,10,6,1,17,8,23,0.33,8,Rain,88
2013-1-9,66,64,61,63,61,59,97,92,87,30.07,30.00,29.87,10,8,2,24,9,33,1.03,8,Rain,72
2013-1-10,70,58,45,63,55,42,93,69,44,30.06,30.00,29.95,10,6,0,18,5,25,0.02,3,Fog-Rain,185
2013-1-11,74,59,43,61,49,40,92,67,41,30.04,29.95,29.89,10,9,2,14,5,17,0.00,3,,145
2013-1-12,77,65,53,69,66,50,93,84,74,29.91,29.81,29.72,10,7,0,21,11,31,0.23,8,Fog-Rain,165
2013-1-13,53,47,40,48,38,33,89,75,61,30.17,30.02,29.81,10,8,2,17,8,24,0.96,6,Rain,335
2013-1-14,45,41,36,36,32,30,85,76,67,30.27,30.19,30.13,10,10,6,15,8,22,0.09,7,Rain,28
2013-1-15,37,35,33,32,30,28,89,82,75,30.18,30.14,30.08,10,7,2,14,7,20,0.06,8,Rain,1
2013-1-16,51,41,31,32,26,17,89,59,29,30.27,30.21,30.14,10,10,10,15,6,21,0.00,3,,310
2013-1-17,63,45,27,35,29,22,85,59,33,30.48,30.37,30.27,10,10,4,13,3,21,0.00,0,,327
2013-1-18,63,47,31,37,32,28,89,60,30,30.56,30.45,30.37,10,10,9,10,2,13,0.00,0,,134
2013-1-19,66,49,32,43,34,28,89,62,34,30.36,30.29,30.20,10,7,0,9,3,12,0.00,0,Fog,154
2013-1-20,69,54,38,50,42,35,93,66,39,30.29,30.22,30.13,10,6,0,9,2,12,0.00,2,Fog,136
2013-1-21,73,57,41,50,42,37,93,67,41,30.24,30.18,30.15,10,5,0,9,3,14,0.00,1,Fog,162
2013-1-22,70,55,39,48,41,34,86,65,44,30.35,30.27,30.23,10,10,10,10,4,14,0.00,0,,111
2013-1-23,75,59,42,55,47,39,96,69,41,30.36,30.30,30.22,10,4,0,14,5,18,0.00,1,Fog,174
2013-1-24,73,63,53,61,58,52,93,80,66,30.28,30.21,30.14,10,6,0,13,6,18,0.01,6,Fog,173
2013-1-25,79,71,62,59,57,55,84,65,45,30.19,30.12,30.06,10,10,8,15,7,21,0.00,6,,191
2013-1-26,79,66,53,63,57,51,90,66,42,30.19,30.15,30.09,10,7,0,14,6,17,T,6,Fog-Rain,135
2013-1-27,77,65,53,64,59,50,93,76,58,30.16,30.10,30.04,10,7,1,17,9,25,0.02,4,Rain,147
2013-1-28,80,74,67,64,62,59,87,69,51,30.12,30.05,29.96,10,10,9,22,11,29,0.00,7,,157
2013-1-29,77,68,58,66,63,53,90,80,69,29.94,29.75,29.58,10,9,2,26,14,39,0.46,8,Rain,180
2013-1-30,59,47,34,54,32,25,86,59,32,30.19,29.98,29.73,10,10,10,25,9,36,T,4,,289
2013-1-31,66,48,30,34,29,21,89,54,19,30.30,30.24,30.19,10,10,10,17,5,21,0.00,0,,194